Time;durP1;ratioP1;P1;durP2;ratioP2;P2;SDS_P1;SDS_P2;PMS_P1;PMS_P2;Temp;Humidity;BMP_temperature;BMP_pressure;BME280_temperature;BME280_humidity;BME280_pressure;Samples;Min_cycle;Max_cycle;Signal;HPM_P1;HPM_P2
2022/10/09 00:01:10;;;;;;;;;;;17.50;57.40;;;;;;5114769;28;19969;-74
2022/10/09 00:03:37;;;;;;;;;;;17.50;57.40;;;;;;5092949;28;19968;-74
2022/10/09 00:06:03;;;;;;;;;;;17.50;57.50;;;;;;5093086;28;19931;-73
2022/10/09 00:08:33;;;;;;;;;;;17.50;57.50;;;;;;5092971;28;19931;-74
2022/10/09 00:10:58;;;;;;;;;;;17.50;57.40;;;;;;5092968;28;19924;-78
2022/10/09 00:13:24;;;;;;;;;;;17.50;57.50;;;;;;5094184;28;19927;-74
2022/10/09 00:15:49;;;;;;;;;;;17.50;57.50;;;;;;5109920;28;20360;-74
2022/10/09 00:18:16;;;;;;;;;;;17.50;57.40;;;;;;5126861;27;19927;-74
2022/10/09 00:20:42;;;;;;;;;;;17.50;57.50;;;;;;5126926;27;19920;-74
2022/10/09 00:23:09;;;;;;;;;;;17.50;58.20;;;;;;5126916;27;19928;-74
2022/10/09 00:25:35;;;;;;;;;;;17.50;57.40;;;;;;5092140;28;19928;-79
2022/10/09 00:28:01;;;;;;;;;;;17.50;57.50;;;;;;5092663;28;19934;-74
2022/10/09 00:30:27;;;;;;;;;;;17.50;57.50;;;;;;5092590;28;19920;-74
2022/10/09 00:32:53;;;;;;;;;;;17.50;57.40;;;;;;5092496;28;20014;-74
2022/10/09 00:35:19;;;;;;;;;;;17.50;57.40;;;;;;5075607;28;19924;-74
2022/10/09 00:37:45;;;;;;;;;;;17.50;57.50;;;;;;5092835;28;19928;-74
2022/10/09 00:40:10;;;;;;;;;;;17.50;57.40;;;;;;5092714;28;20032;-74
2022/10/09 00:42:36;;;;;;;;;;;17.50;57.40;;;;;;5092492;28;19931;-79
2022/10/09 00:45:02;;;;;;;;;;;17.40;57.40;;;;;;5075428;28;19924;-74
2022/10/09 00:50:14;;;;;;;;;;;17.40;57.40;;;;;;5089995;28;19923;-74
2022/10/09 00:52:40;;;;;;;;;;;17.50;57.40;;;;;;5071994;28;20006;-74
2022/10/09 00:55:07;;;;;;;;;;;17.40;57.40;;;;;;5105798;28;20431;-74
2022/10/09 00:57:34;;;;;;;;;;;17.40;57.40;;;;;;5105295;28;20007;-74
2022/10/09 01:00:00;;;;;;;;;;;17.40;57.40;;;;;;5089801;28;19927;-74
2022/10/09 01:02:26;;;;;;;;;;;17.40;57.40;;;;;;5088809;28;19925;-74
2022/10/09 01:04:52;;;;;;;;;;;17.30;57.30;;;;;;5088567;28;20413;-74
2022/10/09 01:12:57;;;;;;;;;;;17.40;57.30;;;;;;5110340;27;20405;-74
2022/10/09 01:15:27;;;;;;;;;;;17.40;57.30;;;;;;5108634;28;19939;-74
2022/10/09 01:17:56;;;;;;;;;;;17.40;57.40;;;;;;5109211;28;19999;-73
2022/10/09 01:20:42;;;;;;;;;;;17.40;57.30;;;;;;5108742;28;20458;-74
2022/10/09 01:23:14;;;;;;;;;;;17.40;57.40;;;;;;5108559;28;19923;-74
2022/10/09 01:28:21;;;;;;;;;;;17.30;57.30;;;;;;5110311;27;19918;-74
2022/10/09 01:30:47;;;;;;;;;;;17.40;57.30;;;;;;5110242;28;19920;-75
2022/10/09 01:33:14;;;;;;;;;;;17.40;57.40;;;;;;5109162;28;19927;-75
2022/10/09 01:35:40;;;;;;;;;;;17.30;57.30;;;;;;5109136;28;19934;-74
2022/10/09 01:38:05;;;;;;;;;;;17.40;57.30;;;;;;5108801;28;19968;-74
2022/10/09 01:40:31;;;;;;;;;;;17.30;57.30;;;;;;5108681;28;19924;-74
2022/10/09 01:42:58;;;;;;;;;;;17.30;57.30;;;;;;5108764;28;19920;-74
2022/10/09 01:45:23;;;;;;;;;;;17.30;57.30;;;;;;5108615;28;19924;-74
2022/10/09 01:47:49;;;;;;;;;;;17.30;57.30;;;;;;5109898;28;19986;-74
2022/10/09 01:50:20;;;;;;;;;;;17.30;57.20;;;;;;5108947;28;19973;-73
2022/10/09 01:52:48;;;;;;;;;;;17.30;57.30;;;;;;5108810;28;19920;-73
2022/10/09 02:00:42;;;;;;;;;;;17.30;57.20;;;;;;5127715;27;1860777;-74
2022/10/09 02:03:10;;;;;;;;;;;17.20;57.20;;;;;;5174429;27;19965;-73
2022/10/09 02:05:36;;;;;;;;;;;17.20;57.20;;;;;;5174255;27;19924;-74
2022/10/09 02:08:01;;;;;;;;;;;17.30;57.20;;;;;;5174321;27;19923;-74
2022/10/09 02:10:28;;;;;;;;;;;17.30;57.20;;;;;;5174555;27;19927;-74
2022/10/09 02:12:54;;;;;;;;;;;17.20;57.20;;;;;;5174333;27;19934;-74
2022/10/09 02:15:22;;;;;;;;;;;17.10;57.10;;;;;;5174417;27;19926;-74
2022/10/09 02:17:48;;;;;;;;;;;17.20;57.20;;;;;;5174157;27;20017;-74
2022/10/09 02:20:19;;;;;;;;;;;17.20;57.10;;;;;;5173878;27;20055;-74
2022/10/09 02:22:45;;;;;;;;;;;17.20;57.10;;;;;;5192920;27;19926;-74
2022/10/09 02:25:10;;;;;;;;;;;17.20;57.10;;;;;;5174261;27;19918;-74
2022/10/09 02:27:36;;;;;;;;;;;17.20;57.10;;;;;;5174290;27;19918;-74
2022/10/09 02:30:02;;;;;;;;;;;17.20;57.10;;;;;;5174217;27;19918;-74
2022/10/09 02:32:28;;;;;;;;;;;17.20;57.10;;;;;;5174134;27;20030;-74
2022/10/09 02:34:53;;;;;;;;;;;17.20;57.10;;;;;;5173769;27;19918;-74
2022/10/09 02:37:19;;;;;;;;;;;17.20;57.10;;;;;;5192527;27;19923;-74
2022/10/09 02:39:44;;;;;;;;;;;17.20;57.10;;;;;;5173780;27;19971;-74
2022/10/09 02:42:10;;;;;;;;;;;17.20;57.10;;;;;;5156539;27;20255;-74
2022/10/09 02:44:35;;;;;;;;;;;17.20;57.10;;;;;;5173603;27;19963;-74
2022/10/09 02:47:01;;;;;;;;;;;17.20;57.10;;;;;;5173843;27;19979;-74
2022/10/09 02:49:26;;;;;;;;;;;17.20;57.10;;;;;;5173743;27;20369;-73
2022/10/09 02:51:52;;;;;;;;;;;17.10;57.10;;;;;;5173390;27;19951;-74
2022/10/09 02:54:17;;;;;;;;;;;17.10;57.10;;;;;;5173699;27;20009;-74
2022/10/09 02:56:43;;;;;;;;;;;17.10;57.10;;;;;;5173661;27;20392;-74
2022/10/09 02:59:09;;;;;;;;;;;17.10;57.00;;;;;;5173072;27;19974;-73
2022/10/09 03:01:34;;;;;;;;;;;17.10;57.00;;;;;;5173520;27;19925;-74
2022/10/09 03:04:00;;;;;;;;;;;17.10;57.10;;;;;;5173491;27;20277;-73
2022/10/09 03:06:26;;;;;;;;;;;17.10;57.00;;;;;;5173158;27;19919;-73
2022/10/09 03:08:52;;;;;;;;;;;17.10;57.00;;;;;;5173222;27;19925;-74
2022/10/09 03:11:18;;;;;;;;;;;17.10;57.00;;;;;;5163251;27;19926;-74
2022/10/09 03:13:44;;;;;;;;;;;17.10;57.00;;;;;;5159375;27;20265;-73
2022/10/09 03:16:11;;;;;;;;;;;17.10;57.00;;;;;;5177740;27;20010;-73
2022/10/09 03:18:37;;;;;;;;;;;17.10;57.00;;;;;;5141918;27;20382;-73
2022/10/09 03:21:04;;;;;;;;;;;17.00;56.90;;;;;;5159259;27;19922;-74
2022/10/09 03:23:29;;;;;;;;;;;17.10;56.90;;;;;;5159179;27;19918;-73
2022/10/09 03:25:56;;;;;;;;;;;17.00;56.90;;;;;;5158910;27;19919;-74
2022/10/09 03:28:21;;;;;;;;;;;17.00;56.90;;;;;;5158720;27;19971;-73
2022/10/09 03:30:47;;;;;;;;;;;17.00;56.90;;;;;;5158957;27;19923;-74
2022/10/09 03:33:13;;;;;;;;;;;17.00;56.90;;;;;;5158708;27;19975;-74
2022/10/09 03:35:39;;;;;;;;;;;17.00;56.90;;;;;;5159092;27;19918;-74
2022/10/09 03:38:05;;;;;;;;;;;17.00;56.90;;;;;;5158656;27;19923;-73
2022/10/09 03:40:30;;;;;;;;;;;17.00;56.80;;;;;;5177534;27;19930;-73
2022/10/09 03:42:56;;;;;;;;;;;17.00;56.90;;;;;;5158844;27;20393;-74
2022/10/09 03:45:21;;;;;;;;;;;17.00;56.90;;;;;;5158510;27;19919;-74
2022/10/09 03:47:47;;;;;;;;;;;17.00;56.80;;;;;;5158547;27;19919;-73
2022/10/09 03:50:12;;;;;;;;;;;17.00;56.90;;;;;;5158996;27;19930;-73
2022/10/09 03:52:39;;;;;;;;;;;17.00;56.90;;;;;;5158330;27;20289;-73
2022/10/09 03:55:04;;;;;;;;;;;17.00;56.80;;;;;;5158303;27;19919;-73
2022/10/09 03:57:30;;;;;;;;;;;17.00;56.80;;;;;;5158372;27;19925;-73
2022/10/09 03:59:55;;;;;;;;;;;16.90;56.80;;;;;;5157859;27;20009;-73
2022/10/09 04:02:21;;;;;;;;;;;16.90;56.70;;;;;;5158245;27;20005;-73
2022/10/09 04:04:46;;;;;;;;;;;17.00;56.80;;;;;;5158050;27;20010;-73
2022/10/09 04:07:12;;;;;;;;;;;16.90;56.70;;;;;;5176793;27;19929;-73
2022/10/09 04:09:37;;;;;;;;;;;16.90;56.70;;;;;;5158029;27;19919;-73
2022/10/09 04:12:03;;;;;;;;;;;16.90;56.70;;;;;;5158376;27;19926;-73
2022/10/09 04:14:28;;;;;;;;;;;16.90;56.80;;;;;;5158215;27;19918;-73
2022/10/09 04:16:54;;;;;;;;;;;16.90;56.70;;;;;;5158271;27;20431;-73
2022/10/09 04:19:19;;;;;;;;;;;16.90;56.70;;;;;;5176486;27;19923;-73
2022/10/09 04:21:45;;;;;;;;;;;16.90;56.70;;;;;;5157321;27;19919;-73
2022/10/09 04:24:10;;;;;;;;;;;16.90;56.70;;;;;;5157407;27;19925;-73
2022/10/09 04:26:36;;;;;;;;;;;16.90;56.70;;;;;;5157815;27;19926;-73
2022/10/09 04:29:02;;;;;;;;;;;16.90;56.70;;;;;;5157766;27;19919;-73
2022/10/09 04:31:27;;;;;;;;;;;16.90;56.70;;;;;;5157588;27;19919;-79
2022/10/09 04:33:54;;;;;;;;;;;16.90;56.70;;;;;;5157891;27;20016;-73
2022/10/09 04:36:20;;;;;;;;;;;16.90;56.70;;;;;;5140481;27;19969;-73
2022/10/09 04:38:45;;;;;;;;;;;16.90;56.70;;;;;;5157391;27;20378;-73
2022/10/09 04:41:11;;;;;;;;;;;16.80;56.60;;;;;;5157397;27;20021;-73
2022/10/09 04:43:37;;;;;;;;;;;16.80;56.60;;;;;;5157429;27;19926;-73
2022/10/09 04:46:06;;;;;;;;;;;16.80;56.50;;;;;;5157300;27;19923;-73
2022/10/09 04:48:36;;;;;;;;;;;16.80;56.60;;;;;;5157635;27;19926;-73
2022/10/09 04:51:05;;;;;;;;;;;16.80;56.60;;;;;;5157244;27;19919;-73
2022/10/09 04:53:31;;;;;;;;;;;16.80;56.50;;;;;;5157042;27;19925;-73
2022/10/09 04:55:56;;;;;;;;;;;16.80;56.60;;;;;;5157386;27;20009;-73
2022/10/09 04:58:22;;;;;;;;;;;16.80;56.60;;;;;;5175786;27;20005;-73
2022/10/09 05:00:47;;;;;;;;;;;16.80;56.50;;;;;;5156922;27;20437;-72
2022/10/09 05:03:13;;;;;;;;;;;16.80;56.50;;;;;;5157049;27;20334;-72
2022/10/09 05:05:38;;;;;;;;;;;16.80;56.50;;;;;;5156872;27;19918;-73
2022/10/09 05:08:04;;;;;;;;;;;16.80;56.50;;;;;;5175581;27;20009;-72
2022/10/09 05:10:31;;;;;;;;;;;16.80;56.50;;;;;;5156891;27;20267;-73
2022/10/09 05:12:57;;;;;;;;;;;16.80;56.50;;;;;;5157115;27;19919;-73
2022/10/09 05:15:22;;;;;;;;;;;16.80;56.50;;;;;;5175654;27;20382;-73
2022/10/09 05:17:48;;;;;;;;;;;16.80;56.50;;;;;;5139507;27;19919;-73
2022/10/09 05:20:14;;;;;;;;;;;16.70;56.40;;;;;;5156628;27;19923;-73
2022/10/09 05:22:42;;;;;;;;;;;16.70;56.40;;;;;;5156951;27;19941;-73
2022/10/09 05:25:08;;;;;;;;;;;16.70;56.40;;;;;;5156540;27;20441;-73
2022/10/09 05:27:33;;;;;;;;;;;16.70;56.40;;;;;;5156608;27;19969;-73
2022/10/09 05:29:59;;;;;;;;;;;16.70;56.40;;;;;;5156628;27;20016;-73
2022/10/09 05:32:24;;;;;;;;;;;16.70;56.30;;;;;;5156873;27;20009;-73
2022/10/09 05:34:50;;;;;;;;;;;16.70;56.30;;;;;;5175034;27;20365;-73
2022/10/09 05:37:15;;;;;;;;;;;16.70;56.30;;;;;;5156709;27;20014;-73
2022/10/09 05:39:41;;;;;;;;;;;16.70;56.30;;;;;;5175110;27;19975;-73
2022/10/09 05:42:06;;;;;;;;;;;16.70;56.30;;;;;;5156546;27;20361;-73
2022/10/09 05:44:32;;;;;;;;;;;16.70;56.30;;;;;;5156293;27;19983;-73
2022/10/09 05:46:57;;;;;;;;;;;16.70;56.30;;;;;;5156602;27;19964;-73
2022/10/09 05:49:23;;;;;;;;;;;16.70;56.30;;;;;;5174906;27;19919;-73
2022/10/09 05:51:48;;;;;;;;;;;16.70;56.30;;;;;;5156480;27;19926;-73
2022/10/09 05:54:15;;;;;;;;;;;16.60;56.30;;;;;;5156101;27;19932;-74
2022/10/09 05:56:41;;;;;;;;;;;16.70;56.30;;;;;;5156464;27;20005;-77
2022/10/09 05:59:08;;;;;;;;;;;16.60;56.30;;;;;;5152480;27;19923;-73
2022/10/09 06:01:37;;;;;;;;;;;16.60;56.30;;;;;;5153167;27;19933;-73
2022/10/09 06:04:03;;;;;;;;;;;16.60;56.30;;;;;;5152612;27;20386;-73
2022/10/09 06:06:30;;;;;;;;;;;16.60;56.20;;;;;;5153935;27;19988;-73
2022/10/09 06:08:56;;;;;;;;;;;16.60;56.30;;;;;;5153847;27;20279;-73
2022/10/09 06:11:23;;;;;;;;;;;16.60;56.20;;;;;;5152936;27;20435;-73
2022/10/09 06:13:49;;;;;;;;;;;16.60;56.20;;;;;;5152583;27;20073;-73
2022/10/09 06:16:16;;;;;;;;;;;16.60;56.20;;;;;;5152845;27;20014;-73
2022/10/09 06:18:43;;;;;;;;;;;16.60;56.20;;;;;;5153673;27;19938;-73
2022/10/09 06:21:08;;;;;;;;;;;16.60;56.20;;;;;;5153780;27;19919;-73
2022/10/09 06:23:34;;;;;;;;;;;16.60;56.20;;;;;;5152681;27;20060;-73
2022/10/09 06:26:00;;;;;;;;;;;16.60;56.20;;;;;;5152667;27;19988;-74
2022/10/09 06:28:28;;;;;;;;;;;16.60;56.20;;;;;;5152842;27;19923;-73
2022/10/09 06:30:58;;;;;;;;;;;16.60;56.20;;;;;;5152494;27;19919;-73
2022/10/09 06:33:24;;;;;;;;;;;16.50;56.10;;;;;;5152602;27;20278;-73
2022/10/09 06:35:49;;;;;;;;;;;16.50;56.10;;;;;;5152452;27;19922;-73
2022/10/09 06:38:16;;;;;;;;;;;16.60;56.20;;;;;;5152373;27;19980;-73
2022/10/09 06:40:42;;;;;;;;;;;16.50;56.10;;;;;;5152085;27;19929;-73
2022/10/09 06:43:07;;;;;;;;;;;16.60;56.10;;;;;;5152685;27;19919;-73
2022/10/09 06:45:35;;;;;;;;;;;16.50;56.20;;;;;;5152914;27;20290;-73
2022/10/09 06:48:00;;;;;;;;;;;16.50;56.10;;;;;;5156250;27;19919;-73
2022/10/09 06:50:26;;;;;;;;;;;16.50;56.10;;;;;;5157407;27;19930;-73
2022/10/09 06:52:51;;;;;;;;;;;16.50;56.10;;;;;;5156084;27;19919;-73
2022/10/09 06:55:17;;;;;;;;;;;16.50;56.10;;;;;;5155917;27;19975;-73
2022/10/09 06:57:42;;;;;;;;;;;16.50;56.10;;;;;;5156040;27;19919;-73
2022/10/09 07:00:08;;;;;;;;;;;16.50;56.10;;;;;;5155663;27;19953;-73
2022/10/09 07:02:34;;;;;;;;;;;16.50;56.10;;;;;;5157232;27;19933;-73
2022/10/09 07:04:59;;;;;;;;;;;16.50;56.10;;;;;;5156102;27;19925;-73
2022/10/09 07:07:25;;;;;;;;;;;16.50;56.10;;;;;;5156209;27;19919;-73
2022/10/09 07:09:51;;;;;;;;;;;16.40;56.10;;;;;;5157018;27;19964;-73
2022/10/09 07:12:17;;;;;;;;;;;16.50;56.20;;;;;;5155742;27;20371;-73
2022/10/09 07:14:42;;;;;;;;;;;16.50;56.10;;;;;;5155720;27;19923;-73
2022/10/09 07:17:08;;;;;;;;;;;16.50;56.20;;;;;;5155956;27;20022;-73
2022/10/09 07:19:34;;;;;;;;;;;16.50;56.20;;;;;;5155700;27;20283;-73
2022/10/09 07:21:59;;;;;;;;;;;16.50;56.20;;;;;;5155831;27;20366;-74
2022/10/09 07:24:25;;;;;;;;;;;16.40;56.10;;;;;;5155560;27;19925;-73
2022/10/09 07:26:50;;;;;;;;;;;16.50;56.20;;;;;;5156726;27;19923;-74
2022/10/09 07:29:17;;;;;;;;;;;16.40;56.10;;;;;;5155405;27;19963;-73
2022/10/09 07:31:43;;;;;;;;;;;16.40;56.10;;;;;;5155673;27;19930;-74
2022/10/09 07:34:08;;;;;;;;;;;16.40;56.20;;;;;;5156636;27;19919;-74
2022/10/09 07:36:34;;;;;;;;;;;16.40;56.20;;;;;;5155724;27;20014;-74
2022/10/09 07:39:00;;;;;;;;;;;16.50;56.20;;;;;;5155656;27;19923;-74
2022/10/09 07:41:27;;;;;;;;;;;16.40;56.20;;;;;;5155031;27;19926;-74
2022/10/09 07:43:52;;;;;;;;;;;16.40;56.10;;;;;;5155470;27;19923;-74
2022/10/09 07:46:20;;;;;;;;;;;16.40;56.20;;;;;;5155423;27;19921;-74
2022/10/09 07:48:45;;;;;;;;;;;16.40;56.20;;;;;;5155421;27;19926;-74
2022/10/09 07:53:56;;;;;;;;;;;16.30;56.10;;;;;;5110312;27;19912;-73
2022/10/09 07:56:22;;;;;;;;;;;16.40;56.20;;;;;;5143197;27;19945;-73
2022/10/09 07:58:49;;;;;;;;;;;16.40;56.20;;;;;;5108943;28;19966;-73
2022/10/09 08:01:14;;;;;;;;;;;16.40;56.20;;;;;;5110117;28;19920;-73
2022/10/09 08:03:40;;;;;;;;;;;16.30;56.20;;;;;;5109106;28;20363;-73
2022/10/09 08:06:05;;;;;;;;;;;16.30;56.20;;;;;;5143392;27;19967;-73
2022/10/09 08:08:31;;;;;;;;;;;16.30;56.20;;;;;;5143182;27;20415;-73
2022/10/09 08:10:57;;;;;;;;;;;16.40;56.30;;;;;;5108654;28;20320;-73
2022/10/09 08:13:22;;;;;;;;;;;16.40;56.30;;;;;;5142795;27;20015;-73
2022/10/09 08:15:48;;;;;;;;;;;16.40;56.30;;;;;;5109795;28;19924;-73
2022/10/09 08:18:14;;;;;;;;;;;16.40;56.30;;;;;;5108490;28;19927;-78
2022/10/09 08:20:39;;;;;;;;;;;16.30;56.20;;;;;;5108742;28;19920;-73
2022/10/09 08:23:05;;;;;;;;;;;16.40;56.30;;;;;;5108439;28;19919;-73
2022/10/09 08:25:34;;;;;;;;;;;16.30;56.30;;;;;;5108592;28;19920;-73
2022/10/09 08:28:00;;;;;;;;;;;16.30;56.30;;;;;;5142851;27;20006;-76
2022/10/09 08:30:25;;;;;;;;;;;16.30;56.30;;;;;;5108624;28;20087;-73
2022/10/09 08:32:51;;;;;;;;;;;16.30;56.30;;;;;;5108076;28;20010;-73
2022/10/09 08:35:16;;;;;;;;;;;16.30;56.30;;;;;;5108240;28;19920;-78
2022/10/09 08:37:42;;;;;;;;;;;16.30;56.30;;;;;;5108103;28;19920;-73
2022/10/09 08:40:10;;;;;;;;;;;16.30;56.30;;;;;;5142450;27;20007;-73
2022/10/09 08:42:38;;;;;;;;;;;16.40;56.40;;;;;;5108363;28;19927;-73
2022/10/09 08:45:03;;;;;;;;;;;16.30;56.40;;;;;;5108322;28;19924;-73
2022/10/09 08:47:36;;;;;;;;;;;16.30;56.40;;;;;;5108064;28;19947;-73
2022/10/09 08:52:48;;;;;;;;;;;16.30;56.40;;;;;;5110743;27;19918;-74
2022/10/09 08:55:18;;;;;;;;;;;16.40;56.50;;;;;;5108983;28;20470;-73
2022/10/09 08:57:46;;;;;;;;;;;16.30;56.40;;;;;;5109208;28;19971;-74
2022/10/09 09:00:13;;;;;;;;;;;16.30;56.40;;;;;;5109198;28;20341;-73
2022/10/09 09:02:48;;;;;;;;;;;16.30;56.50;;;;;;5108860;28;19977;-73
2022/10/09 09:05:19;;;;;;;;;;;16.30;56.50;;;;;;5109011;28;19920;-73
2022/10/09 09:07:51;;;;;;;;;;;16.20;56.50;;;;;;5108662;28;19920;-73
2022/10/09 09:13:16;;;;;;;;;;;16.30;56.60;;;;;;5129215;27;1871817;-73
2022/10/09 09:15:46;;;;;;;;;;;16.30;56.50;;;;;;5174414;27;20023;-73
2022/10/09 09:20:54;;;;;;;;;;;16.30;56.50;;;;;;5110181;27;19912;-72
2022/10/09 09:23:24;;;;;;;;;;;16.30;56.60;;;;;;5108847;28;19920;-73
2022/10/09 09:25:50;;;;;;;;;;;16.30;56.60;;;;;;5108839;28;19920;-72
2022/10/09 09:30:58;;;;;;;;;;;16.20;56.60;;;;;;5127386;27;1870247;-73
2022/10/09 09:33:31;;;;;;;;;;;16.30;56.60;;;;;;5174408;27;19918;-72
2022/10/09 09:36:07;;;;;;;;;;;16.30;56.60;;;;;;5174683;27;19919;-78
2022/10/09 09:38:33;;;;;;;;;;;16.20;56.60;;;;;;5174618;27;20013;-73
2022/10/09 09:40:59;;;;;;;;;;;16.30;56.70;;;;;;5174455;27;20433;-73
2022/10/09 09:43:25;;;;;;;;;;;16.20;56.70;;;;;;5174518;27;20267;-74
2022/10/09 09:45:52;;;;;;;;;;;16.30;56.80;;;;;;5174458;27;19919;-76
2022/10/09 09:50:59;;;;;;;;;;;16.30;56.80;;;;;;5110281;27;19918;-77
2022/10/09 09:53:41;;;;;;;;;;;16.20;56.70;;;;;;5108920;28;20386;-72
2022/10/09 09:56:08;;;;;;;;;;;16.20;56.80;;;;;;5108871;28;20269;-76
2022/10/09 09:58:35;;;;;;;;;;;16.20;56.70;;;;;;5108860;28;19927;-72
2022/10/09 10:01:02;;;;;;;;;;;16.20;56.80;;;;;;5109270;28;19931;-73
2022/10/09 10:03:28;;;;;;;;;;;16.20;57.60;;;;;;5108865;28;19920;-73
2022/10/09 10:05:53;;;;;;;;;;;16.20;56.80;;;;;;5108630;28;19926;-72
2022/10/09 10:08:22;;;;;;;;;;;16.30;56.90;;;;;;5109001;28;19921;-78
2022/10/09 10:10:48;;;;;;;;;;;16.20;56.80;;;;;;5108450;28;19947;-72
2022/10/09 10:13:15;;;;;;;;;;;16.20;56.90;;;;;;5108629;28;19920;-78
2022/10/09 10:15:47;;;;;;;;;;;16.20;56.90;;;;;;5108708;28;19920;-73
2022/10/09 10:18:14;;;;;;;;;;;16.20;56.90;;;;;;5108828;28;20279;-73
2022/10/09 10:20:48;;;;;;;;;;;16.20;56.90;;;;;;5142757;27;19920;-78
2022/10/09 10:23:22;;;;;;;;;;;16.20;56.90;;;;;;5108288;28;19969;-73
2022/10/09 10:25:49;;;;;;;;;;;16.20;56.90;;;;;;5108597;28;19989;-78
2022/10/09 10:28:17;;;;;;;;;;;16.20;56.90;;;;;;5108260;28;20010;-78
2022/10/09 10:30:43;;;;;;;;;;;16.20;57.00;;;;;;5142540;27;20291;-71
2022/10/09 10:33:18;;;;;;;;;;;16.30;57.00;;;;;;5108094;28;20008;-72
2022/10/09 10:35:44;;;;;;;;;;;16.30;57.00;;;;;;5108373;28;20007;-72
2022/10/09 10:38:29;;;;;;;;;;;16.30;56.90;;;;;;5107980;28;19924;-77
2022/10/09 10:46:22;;;;;;;;;;;16.30;56.90;;;;;;5089762;28;19913;-72
2022/10/09 10:48:48;;;;;;;;;;;16.30;56.90;;;;;;5088884;28;19934;-71
2022/10/09 10:51:34;;;;;;;;;;;16.20;57.00;;;;;;5089796;28;19920;-72
2022/10/09 10:54:16;;;;;;;;;;;16.30;57.00;;;;;;5088175;28;19924;-72
2022/10/09 10:56:47;;;;;;;;;;;16.30;57.00;;;;;;5105318;28;20427;-71
2022/10/09 10:59:33;;;;;;;;;;;16.30;57.00;;;;;;5088387;28;19966;-77
2022/10/09 11:04:49;;;;;;;;;;;16.30;56.90;;;;;;5089950;28;20385;-72
2022/10/09 11:15:44;;;;;;;;;;;16.30;56.90;;;;;;5110375;27;19944;-76
2022/10/09 11:18:29;;;;;;;;;;;16.40;57.00;;;;;;5108723;28;19920;-77
2022/10/09 11:23:46;;;;;;;;;;;16.20;57.00;;;;;;5090279;28;19945;-72
2022/10/09 11:29:00;;;;;;;;;;;16.20;57.00;;;;;;5090251;28;19912;-73
2022/10/09 11:34:10;;;;;;;;;;;16.30;57.00;;;;;;5110211;27;19912;-72
2022/10/09 11:36:39;;;;;;;;;;;16.30;57.00;;;;;;5108842;28;19920;-72
2022/10/09 11:39:09;;;;;;;;;;;16.30;57.10;;;;;;5108894;28;19927;-72
2022/10/09 11:41:35;;;;;;;;;;;16.30;57.10;;;;;;5143435;27;20355;-71
2022/10/09 11:44:21;;;;;;;;;;;16.30;57.10;;;;;;5143404;27;19924;-72
2022/10/09 11:47:06;;;;;;;;;;;16.30;57.10;;;;;;5110409;28;20010;-72
2022/10/09 11:49:51;;;;;;;;;;;16.30;57.10;;;;;;5108563;28;19920;-77
2022/10/09 11:55:14;;;;;;;;;;;16.30;57.10;;;;;;5110186;27;19919;-72
2022/10/09 11:57:39;;;;;;;;;;;16.30;57.10;;;;;;5142814;27;20374;-72
2022/10/09 12:00:06;;;;;;;;;;;16.30;57.10;;;;;;5108535;28;19990;-71
2022/10/09 12:02:32;;;;;;;;;;;16.30;57.10;;;;;;5108125;28;20387;-75
2022/10/09 12:04:58;;;;;;;;;;;16.30;57.20;;;;;;5109071;28;19920;-72
2022/10/09 12:07:25;;;;;;;;;;;16.20;57.10;;;;;;5109105;28;19920;-72
2022/10/09 12:09:55;;;;;;;;;;;16.30;57.20;;;;;;5143372;27;19946;-73
2022/10/09 12:12:21;;;;;;;;;;;16.30;57.20;;;;;;5108921;28;19920;-72
2022/10/09 12:14:49;;;;;;;;;;;16.20;57.20;;;;;;5108542;28;20398;-72
2022/10/09 12:20:07;;;;;;;;;;;16.30;57.20;;;;;;5110230;27;20419;-72
2022/10/09 12:22:35;;;;;;;;;;;16.30;57.20;;;;;;5109328;28;19930;-72
2022/10/09 12:25:05;;;;;;;;;;;16.30;57.30;;;;;;5110419;28;19996;-72
2022/10/09 12:27:33;;;;;;;;;;;16.20;57.20;;;;;;5092140;28;20015;-72
2022/10/09 12:30:03;;;;;;;;;;;16.30;57.30;;;;;;5143395;27;19924;-72
2022/10/09 12:32:31;;;;;;;;;;;16.30;57.30;;;;;;5110117;28;20325;-72
2022/10/09 12:34:56;;;;;;;;;;;16.30;57.30;;;;;;5108701;28;19934;-72
2022/10/09 12:37:31;;;;;;;;;;;16.30;57.30;;;;;;5108927;28;20014;-72
2022/10/09 12:40:05;;;;;;;;;;;16.20;57.20;;;;;;5109907;28;19924;-72
2022/10/09 12:42:31;;;;;;;;;;;16.30;57.30;;;;;;5143286;27;20485;-72
2022/10/09 12:44:56;;;;;;;;;;;16.30;57.30;;;;;;5108819;28;20002;-72
2022/10/09 12:47:25;;;;;;;;;;;16.30;57.30;;;;;;5108457;28;19920;-72
2022/10/09 12:52:33;;;;;;;;;;;16.30;57.30;;;;;;5127460;27;1867103;-72
2022/10/09 12:55:00;;;;;;;;;;;16.20;57.20;;;;;;5174435;27;19947;-72
2022/10/09 12:57:26;;;;;;;;;;;16.20;57.30;;;;;;5174632;27;19926;-72
2022/10/09 12:59:52;;;;;;;;;;;16.30;58.10;;;;;;5174366;27;20338;-72
2022/10/09 13:02:18;;;;;;;;;;;16.20;57.30;;;;;;5174506;27;19922;-71
2022/10/09 13:05:00;;;;;;;;;;;16.30;57.30;;;;;;5174669;27;19918;-72
2022/10/09 13:07:28;;;;;;;;;;;16.30;57.30;;;;;;5174087;27;19970;-72
2022/10/09 13:09:58;;;;;;;;;;;16.30;57.30;;;;;;5174428;27;19952;-72
2022/10/09 13:12:25;;;;;;;;;;;16.30;57.40;;;;;;5192790;27;19971;-71
2022/10/09 13:14:52;;;;;;;;;;;16.30;57.30;;;;;;5174062;27;19919;-71
2022/10/09 13:17:21;;;;;;;;;;;16.20;57.30;;;;;;5174278;27;19954;-72
2022/10/09 13:19:52;;;;;;;;;;;16.30;57.30;;;;;;5173981;27;19933;-76
2022/10/09 13:22:21;;;;;;;;;;;16.30;57.30;;;;;;5192810;27;19936;-72
2022/10/09 13:24:49;;;;;;;;;;;16.30;57.30;;;;;;5193058;27;19923;-77
2022/10/09 13:27:15;;;;;;;;;;;16.30;57.40;;;;;;5192585;27;20009;-78
2022/10/09 13:29:41;;;;;;;;;;;16.30;57.40;;;;;;5192554;27;20002;-72
2022/10/09 13:32:09;;;;;;;;;;;16.30;57.40;;;;;;5173636;27;19931;-71
2022/10/09 13:34:35;;;;;;;;;;;16.30;57.40;;;;;;5173985;27;19919;-71
2022/10/09 13:37:00;;;;;;;;;;;16.30;57.40;;;;;;5173610;27;19926;-79
2022/10/09 13:39:26;;;;;;;;;;;16.30;57.40;;;;;;5173885;27;19941;-71
2022/10/09 13:41:54;;;;;;;;;;;16.30;57.40;;;;;;5192422;27;19918;-71
2022/10/09 13:44:20;;;;;;;;;;;16.30;57.40;;;;;;5173464;27;19925;-72
2022/10/09 13:46:45;;;;;;;;;;;16.30;57.40;;;;;;5192149;27;19919;-72
2022/10/09 13:49:11;;;;;;;;;;;16.20;57.40;;;;;;5173338;27;19956;-79
2022/10/09 13:51:36;;;;;;;;;;;16.30;57.40;;;;;;5173018;27;19974;-72
2022/10/09 13:54:02;;;;;;;;;;;16.30;57.40;;;;;;5173541;27;20266;-71
2022/10/09 13:56:28;;;;;;;;;;;16.40;57.50;;;;;;5173363;27;19929;-72
2022/10/09 13:58:53;;;;;;;;;;;16.30;57.40;;;;;;5173594;27;20186;-71
2022/10/09 14:01:19;;;;;;;;;;;16.30;57.40;;;;;;5173614;27;20563;-71
2022/10/09 14:03:45;;;;;;;;;;;16.30;57.40;;;;;;5159947;27;19919;-72
2022/10/09 14:06:10;;;;;;;;;;;16.30;58.20;;;;;;5159252;27;19918;-77
2022/10/09 14:08:36;;;;;;;;;;;16.30;57.50;;;;;;5159063;27;19919;-71
2022/10/09 14:11:01;;;;;;;;;;;16.30;57.50;;;;;;5159022;27;19922;-71
2022/10/09 14:13:27;;;;;;;;;;;16.30;57.50;;;;;;5158931;27;19929;-71
2022/10/09 14:15:53;;;;;;;;;;;16.30;57.50;;;;;;5158959;27;19919;-71
2022/10/09 14:18:19;;;;;;;;;;;16.30;57.40;;;;;;5159166;27;20021;-72
2022/10/09 14:20:44;;;;;;;;;;;16.30;57.40;;;;;;5158743;27;20002;-71
2022/10/09 14:23:10;;;;;;;;;;;16.30;57.50;;;;;;5158878;27;19918;-73
2022/10/09 14:25:35;;;;;;;;;;;16.30;57.50;;;;;;5158688;27;19919;-71
2022/10/09 14:28:01;;;;;;;;;;;16.30;57.50;;;;;;5159066;27;19925;-71
2022/10/09 14:30:27;;;;;;;;;;;16.30;58.20;;;;;;5158575;27;19930;-72
2022/10/09 14:32:54;;;;;;;;;;;16.30;57.50;;;;;;5158669;27;19918;-80
2022/10/09 14:35:19;;;;;;;;;;;16.30;57.40;;;;;;5158481;27;20393;-72
2022/10/09 14:37:45;;;;;;;;;;;16.30;57.40;;;;;;5158546;27;19919;-71
2022/10/09 14:40:11;;;;;;;;;;;16.30;57.50;;;;;;5158585;27;19918;-72
2022/10/09 14:42:37;;;;;;;;;;;16.30;57.50;;;;;;5158496;27;19922;-72
2022/10/09 14:45:03;;;;;;;;;;;16.30;57.50;;;;;;5158331;27;20378;-71
2022/10/09 14:47:28;;;;;;;;;;;16.40;57.50;;;;;;5158760;27;19933;-71
2022/10/09 14:49:54;;;;;;;;;;;16.30;57.40;;;;;;5176902;27;19939;-72
2022/10/09 14:52:19;;;;;;;;;;;16.30;57.40;;;;;;5176630;27;19977;-71
2022/10/09 14:54:45;;;;;;;;;;;16.40;57.50;;;;;;5158254;27;19919;-71
2022/10/09 14:57:10;;;;;;;;;;;16.40;57.50;;;;;;5158118;27;19918;-71
2022/10/09 14:59:36;;;;;;;;;;;16.40;57.50;;;;;;5158139;27;19922;-77
2022/10/09 15:02:01;;;;;;;;;;;16.30;57.40;;;;;;5158339;27;19934;-71
2022/10/09 15:04:27;;;;;;;;;;;16.40;57.50;;;;;;5158359;27;19923;-71
2022/10/09 15:06:52;;;;;;;;;;;16.30;57.50;;;;;;5176626;27;20449;-71
2022/10/09 15:09:18;;;;;;;;;;;16.30;57.40;;;;;;5157920;27;20378;-71
2022/10/09 15:11:43;;;;;;;;;;;16.40;57.50;;;;;;5157759;27;19923;-71
2022/10/09 15:14:09;;;;;;;;;;;16.30;57.40;;;;;;5156799;27;19918;-71
2022/10/09 15:16:35;;;;;;;;;;;16.40;57.50;;;;;;5157710;27;19918;-71
2022/10/09 15:19:01;;;;;;;;;;;16.40;57.50;;;;;;5157968;27;20013;-71
2022/10/09 15:21:27;;;;;;;;;;;16.30;57.40;;;;;;5157394;27;19923;-79